createdAt,value
2023-04-14T00:00:12.824Z,9.96
2023-04-14T00:01:35.597Z,9.92
2023-04-14T00:02:38.747Z,9.92
2023-04-14T00:03:42.348Z,9.92
2023-04-14T00:04:52.191Z,9.92
2023-04-14T00:05:55.113Z,9.91
2023-04-14T00:07:00.118Z,9.91
2023-04-14T00:08:03.070Z,9.91
2023-04-14T00:09:05.944Z,9.90
2023-04-14T00:10:09.078Z,9.90
2023-04-14T00:11:11.963Z,9.89
2023-04-14T00:12:14.948Z,9.88
2023-04-14T00:13:17.818Z,9.86
2023-04-14T00:14:20.681Z,9.86
2023-04-14T00:15:23.798Z,9.86
2023-04-14T00:16:26.811Z,9.85
2023-04-14T00:17:31.121Z,9.85
2023-04-14T00:18:34.285Z,9.82
2023-04-14T00:19:37.116Z,9.77
2023-04-14T00:20:39.892Z,9.74
2023-04-14T00:21:42.817Z,9.72
2023-04-14T00:22:45.713Z,9.72
2023-04-14T00:23:48.978Z,9.71
2023-04-14T00:24:52.113Z,9.71
2023-04-14T00:25:55.046Z,9.69
2023-04-14T00:26:57.907Z,9.67
2023-04-14T00:28:00.922Z,9.64
2023-04-14T00:29:03.976Z,9.60
2023-04-14T00:30:07.657Z,9.59
2023-04-14T00:31:11.448Z,9.58
2023-04-14T00:32:14.466Z,9.55
2023-04-14T00:33:17.345Z,9.53
2023-04-14T00:34:20.123Z,9.53
2023-04-14T00:35:24.530Z,9.53
2023-04-14T00:36:27.388Z,9.54
2023-04-14T00:37:31.038Z,9.54
2023-04-14T00:38:35.779Z,9.54
2023-04-14T00:39:39.045Z,9.53
2023-04-14T00:40:41.827Z,9.52
2023-04-14T00:41:44.579Z,9.52
2023-04-14T00:42:47.972Z,9.52
2023-04-14T00:43:54.650Z,9.54
2023-04-14T00:44:57.485Z,9.56
2023-04-14T00:46:00.936Z,9.56
2023-04-14T00:47:04.213Z,9.57
2023-04-14T00:48:07.588Z,9.57
2023-04-14T00:49:11.388Z,9.58
2023-04-14T00:50:16.918Z,9.57
2023-04-14T00:51:19.766Z,9.57
2023-04-14T00:52:24.816Z,9.58
2023-04-14T00:53:27.859Z,9.56
2023-04-14T00:54:32.631Z,9.55
2023-04-14T00:55:36.364Z,9.55
2023-04-14T00:56:39.438Z,9.55
2023-04-14T00:57:42.872Z,9.54
2023-04-14T00:58:46.524Z,9.51
2023-04-14T00:59:49.560Z,9.50
2023-04-14T01:00:55.689Z,9.47
2023-04-14T01:02:00.937Z,9.49
2023-04-14T01:03:04.355Z,9.48
2023-04-14T01:04:08.150Z,9.50
2023-04-14T01:05:12.778Z,9.51
2023-04-14T01:06:15.900Z,9.53
2023-04-14T01:07:19.867Z,9.53
2023-04-14T01:08:22.958Z,9.56
2023-04-14T01:09:25.958Z,9.57
2023-04-14T01:10:34.333Z,9.57
2023-04-14T01:12:00.530Z,9.55
2023-04-14T01:13:13.814Z,9.52
2023-04-14T01:14:31.738Z,9.50
2023-04-14T01:15:47.697Z,9.49
2023-04-14T01:16:55.294Z,9.50
2023-04-14T01:18:10.283Z,9.49
2023-04-14T01:19:54.850Z,9.49
2023-04-14T01:21:05.534Z,9.46
2023-04-14T01:22:10.956Z,9.44
2023-04-14T01:23:21.661Z,9.43
2023-04-14T01:24:36.352Z,9.43
2023-04-14T01:26:00.380Z,9.42
2023-04-14T01:27:23.489Z,9.41
2023-04-14T01:29:03.858Z,9.39
2023-04-14T01:31:48.748Z,9.36
2023-04-14T01:32:56.534Z,9.37
2023-04-14T01:34:34.928Z,9.37
2023-04-14T01:35:42.725Z,9.35
2023-04-14T01:37:06.777Z,9.33
2023-04-14T01:38:19.361Z,9.33
2023-04-14T01:39:26.716Z,9.33
2023-04-14T01:40:33.633Z,9.35
2023-04-14T01:41:42.776Z,9.34
2023-04-14T01:42:52.191Z,9.31
2023-04-14T01:43:59.448Z,9.28
2023-04-14T01:45:11.948Z,9.26
2023-04-14T01:46:17.728Z,9.24
2023-04-14T01:47:22.240Z,9.21
2023-04-14T01:48:26.535Z,9.21
2023-04-14T01:49:33.765Z,9.21
2023-04-14T01:50:37.987Z,9.21
2023-04-14T01:51:44.129Z,9.20
2023-04-14T01:52:51.623Z,9.20
2023-04-14T01:53:57.941Z,9.22
2023-04-14T01:55:06.747Z,9.21
2023-04-14T01:56:11.355Z,9.21
2023-04-14T01:57:16.449Z,9.21
2023-04-14T01:58:23.255Z,9.21
2023-04-14T01:59:29.627Z,9.18
2023-04-14T02:00:36.080Z,9.17
2023-04-14T02:01:40.956Z,9.16
2023-04-14T02:02:50.316Z,9.16
2023-04-14T02:03:53.529Z,9.17
2023-04-14T02:04:59.695Z,9.16
2023-04-14T02:06:04.773Z,9.14
2023-04-14T02:07:12.589Z,9.13
2023-04-14T02:08:17.928Z,9.11
2023-04-14T02:09:24.905Z,9.10
2023-04-14T02:10:29.129Z,9.11
2023-04-14T02:11:34.738Z,9.11
2023-04-14T02:12:41.335Z,9.12
2023-04-14T02:13:45.937Z,9.12
2023-04-14T02:14:51.195Z,9.12
2023-04-14T02:15:55.064Z,9.12
2023-04-14T02:16:59.776Z,9.12
2023-04-14T02:18:05.823Z,9.11
2023-04-14T02:19:09.600Z,9.11
2023-04-14T02:20:14.700Z,9.12
2023-04-14T02:21:20.008Z,9.10
2023-04-14T02:22:22.937Z,9.10
2023-04-14T02:23:25.847Z,9.09
2023-04-14T02:24:31.114Z,9.07
2023-04-14T02:25:41.103Z,9.05
2023-04-14T02:26:56.137Z,9.04
2023-04-14T02:28:03.883Z,9.01
2023-04-14T02:29:13.607Z,8.99
2023-04-14T02:30:24.689Z,8.96
2023-04-14T02:31:32.561Z,8.95
2023-04-14T02:32:37.516Z,8.94
2023-04-14T02:33:44.048Z,8.94
2023-04-14T02:34:58.939Z,8.93
2023-04-14T02:36:06.640Z,8.92
2023-04-14T02:37:12.762Z,8.90
2023-04-14T02:38:44.912Z,8.89
2023-04-14T02:39:53.792Z,8.89
2023-04-14T02:40:59.841Z,8.90
2023-04-14T02:42:10.955Z,8.89
2023-04-14T02:43:19.487Z,8.90
2023-04-14T02:44:31.182Z,8.91
2023-04-14T02:45:38.511Z,8.91
2023-04-14T02:46:46.061Z,8.91
2023-04-14T02:47:54.581Z,8.92
2023-04-14T02:49:01.892Z,8.94
2023-04-14T02:50:10.183Z,8.96
2023-04-14T02:51:15.504Z,8.98
2023-04-14T02:52:22.032Z,8.98
2023-04-14T02:53:26.629Z,9.00
2023-04-14T02:54:41.626Z,9.01
2023-04-14T02:55:50.532Z,9.03
2023-04-14T02:56:57.467Z,9.02
2023-04-14T02:58:01.190Z,9.00
2023-04-14T02:59:06.296Z,8.98
2023-04-14T03:00:11.244Z,8.99
2023-04-14T03:01:19.544Z,8.97
2023-04-14T03:02:24.885Z,8.96
2023-04-14T03:03:37.702Z,8.95
2023-04-14T03:04:42.405Z,8.94
2023-04-14T03:05:52.083Z,8.93
2023-04-14T03:06:57.038Z,8.91
2023-04-14T03:08:00.907Z,8.92
2023-04-14T03:09:04.998Z,8.91
2023-04-14T03:10:09.726Z,8.89
2023-04-14T03:11:14.775Z,8.89
2023-04-14T03:12:19.391Z,8.87
2023-04-14T03:13:28.359Z,8.85
2023-04-14T03:14:31.838Z,8.83
2023-04-14T03:15:37.631Z,8.83
2023-04-14T03:16:41.373Z,8.86
2023-04-14T03:17:48.830Z,8.87
2023-04-14T03:18:54.585Z,8.90
2023-04-14T03:19:58.660Z,8.89
2023-04-14T03:21:02.565Z,8.87
2023-04-14T03:22:06.802Z,8.86
2023-04-14T03:23:12.504Z,8.86
2023-04-14T03:24:24.721Z,8.86
2023-04-14T03:25:29.359Z,8.85
2023-04-14T03:26:34.859Z,8.86
2023-04-14T03:27:40.298Z,8.86
2023-04-14T03:28:43.699Z,8.85
2023-04-14T03:29:51.913Z,8.82
2023-04-14T03:30:56.936Z,8.79
2023-04-14T03:32:06.780Z,8.78
2023-04-14T03:33:13.164Z,8.76
2023-04-14T03:34:17.836Z,8.74
2023-04-14T03:35:23.335Z,8.72
2023-04-14T03:36:27.383Z,8.71
2023-04-14T03:37:35.893Z,8.72
2023-04-14T03:38:42.203Z,8.74
2023-04-14T03:39:50.938Z,8.73
2023-04-14T03:40:59.142Z,8.76
2023-04-14T03:42:03.762Z,8.77
2023-04-14T03:43:12.947Z,8.77
2023-04-14T03:44:19.332Z,8.77
2023-04-14T03:45:26.612Z,8.76
2023-04-14T03:46:31.350Z,8.76
2023-04-14T03:47:35.919Z,8.78
2023-04-14T03:48:43.670Z,8.79
2023-04-14T03:49:50.466Z,8.80
2023-04-14T03:50:55.224Z,8.82
2023-04-14T03:52:05.246Z,8.82
2023-04-14T03:53:14.841Z,8.81
2023-04-14T03:54:19.371Z,8.80
2023-04-14T03:55:23.492Z,8.80
2023-04-14T03:56:27.665Z,8.81
2023-04-14T03:57:32.609Z,8.81
2023-04-14T03:58:36.957Z,8.80
2023-04-14T03:59:42.499Z,8.81
2023-04-14T04:00:47.691Z,8.81
2023-04-14T04:01:52.764Z,8.82
2023-04-14T04:02:57.638Z,8.84
2023-04-14T04:04:03.085Z,8.85
2023-04-14T04:05:09.766Z,8.85
2023-04-14T04:06:13.167Z,8.84
2023-04-14T04:07:19.465Z,8.82
2023-04-14T04:08:24.132Z,8.81
2023-04-14T04:09:28.370Z,8.82
2023-04-14T04:10:35.104Z,8.82
2023-04-14T04:11:39.914Z,8.80
2023-04-14T04:12:45.223Z,8.78
2023-04-14T04:13:49.376Z,8.75
2023-04-14T04:14:52.495Z,8.74
2023-04-14T04:15:55.754Z,8.73
2023-04-14T04:17:04.337Z,8.73
2023-04-14T04:18:08.932Z,8.75
2023-04-14T04:19:14.103Z,8.75
2023-04-14T04:20:18.782Z,8.74
2023-04-14T04:21:22.901Z,8.74
2023-04-14T04:22:27.628Z,8.73
2023-04-14T04:23:33.553Z,8.73
2023-04-14T04:24:38.823Z,8.73
2023-04-14T04:25:42.409Z,8.74
2023-04-14T04:26:54.301Z,8.74
2023-04-14T04:27:57.528Z,8.74
2023-04-14T04:29:00.898Z,8.73
2023-04-14T04:30:08.237Z,8.72
2023-04-14T04:31:14.346Z,8.72
2023-04-14T04:32:18.119Z,8.74
2023-04-14T04:33:22.006Z,8.76
2023-04-14T04:34:26.759Z,8.77
2023-04-14T04:35:30.631Z,8.79
2023-04-14T04:36:34.752Z,8.83
2023-04-14T04:37:38.522Z,8.87
2023-04-14T04:38:43.094Z,8.88
2023-04-14T04:39:48.659Z,8.90
2023-04-14T04:40:52.360Z,8.92
2023-04-14T04:42:06.887Z,8.94
2023-04-14T04:43:09.750Z,8.97
2023-04-14T04:44:12.956Z,8.98
2023-04-14T04:45:40.180Z,8.99
2023-04-14T04:46:52.119Z,8.99
2023-04-14T04:47:58.149Z,9.01
2023-04-14T04:49:01.217Z,9.02
2023-04-14T04:50:04.659Z,9.04
2023-04-14T04:51:08.674Z,9.05
2023-04-14T04:52:11.510Z,9.07
2023-04-14T04:53:14.727Z,9.10
2023-04-14T04:54:18.277Z,9.12
2023-04-14T04:55:21.067Z,9.13
2023-04-14T04:56:24.118Z,9.12
2023-04-14T04:57:26.999Z,9.14
2023-04-14T04:58:29.938Z,9.17
2023-04-14T04:59:33.355Z,9.21
2023-04-14T05:00:36.229Z,9.23
2023-04-14T05:01:39.209Z,9.26
2023-04-14T05:02:42.216Z,9.28
2023-04-14T05:03:46.291Z,9.30
2023-04-14T05:04:49.204Z,9.31
2023-04-14T05:05:52.323Z,9.33
2023-04-14T05:06:55.295Z,9.35
2023-04-14T05:07:58.282Z,9.37
2023-04-14T05:09:01.663Z,9.40
2023-04-14T05:10:05.691Z,9.42
2023-04-14T05:11:08.750Z,9.44
2023-04-14T05:12:11.917Z,9.46
2023-04-14T05:13:14.823Z,9.47
2023-04-14T05:14:17.682Z,9.50
2023-04-14T05:15:20.644Z,9.52
2023-04-14T05:16:23.941Z,9.52
2023-04-14T05:17:27.361Z,9.54
2023-04-14T05:18:31.411Z,9.58
2023-04-14T05:19:34.297Z,9.64
2023-04-14T05:20:37.477Z,9.68
2023-04-14T05:21:40.463Z,9.74
2023-04-14T05:22:43.339Z,9.79
2023-04-14T05:23:46.876Z,9.87
2023-04-14T05:24:50.650Z,9.93
2023-04-14T05:26:01.264Z,9.97
2023-04-14T05:27:14.220Z,9.99
2023-04-14T05:28:17.615Z,10.03
2023-04-14T05:29:20.764Z,10.10
2023-04-14T05:30:24.366Z,10.15
2023-04-14T05:31:27.542Z,10.21
2023-04-14T05:32:31.132Z,10.27
2023-04-14T05:33:37.370Z,10.34
2023-04-14T05:34:41.348Z,10.39
2023-04-14T05:35:47.472Z,10.42
2023-04-14T05:36:50.400Z,10.45
2023-04-14T05:37:53.207Z,10.45
2023-04-14T05:38:56.318Z,10.46
2023-04-14T05:39:59.143Z,10.50
2023-04-14T05:41:02.496Z,10.55
2023-04-14T05:42:05.679Z,10.59
2023-04-14T05:43:08.858Z,10.62
2023-04-14T05:44:11.812Z,10.63
2023-04-14T05:45:14.861Z,10.63
2023-04-14T05:46:17.970Z,10.64
2023-04-14T05:47:20.820Z,10.67
2023-04-14T05:48:25.179Z,10.71
2023-04-14T05:49:28.613Z,10.76
2023-04-14T05:50:33.449Z,10.81
2023-04-14T05:51:36.374Z,10.88
2023-04-14T05:52:39.246Z,10.92
2023-04-14T05:53:42.084Z,10.97
2023-04-14T05:54:45.324Z,10.99
2023-04-14T05:55:51.007Z,10.99
2023-04-14T05:56:53.810Z,10.98
2023-04-14T05:57:56.558Z,10.97
2023-04-14T05:58:59.595Z,10.94
2023-04-14T06:00:02.568Z,10.87
2023-04-14T06:01:15.743Z,10.80
2023-04-14T06:02:18.947Z,10.75
2023-04-14T06:03:22.239Z,10.72
2023-04-14T06:04:25.625Z,10.68
2023-04-14T06:05:28.945Z,10.66
2023-04-14T06:06:32.745Z,10.63
2023-04-14T06:07:36.073Z,10.59
2023-04-14T06:08:38.942Z,10.59
2023-04-14T06:09:42.853Z,10.62
2023-04-14T06:10:46.396Z,10.62
2023-04-14T06:11:49.269Z,10.58
2023-04-14T06:12:52.207Z,10.54
2023-04-14T06:13:54.989Z,10.50
2023-04-14T06:14:57.934Z,10.48
2023-04-14T06:16:01.113Z,10.46
2023-04-14T06:17:04.156Z,10.42
2023-04-14T06:18:07.118Z,10.39
2023-04-14T06:19:10.927Z,10.38
2023-04-14T06:20:14.552Z,10.37
2023-04-14T06:21:17.791Z,10.37
2023-04-14T06:22:20.710Z,10.41
2023-04-14T06:23:24.720Z,10.46
2023-04-14T06:24:27.620Z,10.51
2023-04-14T06:25:31.118Z,10.53
2023-04-14T06:26:34.091Z,10.52
2023-04-14T06:27:37.505Z,10.51
2023-04-14T06:28:41.475Z,10.52
2023-04-14T06:29:46.352Z,10.53
2023-04-14T06:30:49.790Z,10.51
2023-04-14T06:31:52.944Z,10.50
2023-04-14T06:32:56.339Z,10.49
2023-04-14T06:33:59.221Z,10.49
2023-04-14T06:35:05.000Z,10.51
2023-04-14T06:36:08.381Z,10.52
2023-04-14T06:37:11.345Z,10.51
2023-04-14T06:38:14.420Z,10.49
2023-04-14T06:39:17.257Z,10.47
2023-04-14T06:40:20.174Z,10.50
2023-04-14T06:41:23.158Z,10.56
2023-04-14T06:42:26.420Z,10.61
2023-04-14T06:43:29.301Z,10.63
2023-04-14T06:44:32.180Z,10.64
2023-04-14T06:45:35.037Z,10.65
2023-04-14T06:46:38.034Z,10.67
2023-04-14T06:47:41.208Z,10.71
2023-04-14T06:48:44.141Z,10.76
2023-04-14T06:49:47.071Z,10.78
2023-04-14T06:50:56.790Z,10.81
2023-04-14T06:51:59.672Z,10.80
2023-04-14T06:53:05.896Z,10.76
2023-04-14T06:54:08.920Z,10.70
2023-04-14T06:55:11.822Z,10.68
2023-04-14T06:56:14.714Z,10.69
2023-04-14T06:57:17.769Z,10.68
2023-04-14T06:58:21.038Z,10.67
2023-04-14T06:59:27.935Z,10.68
2023-04-14T07:00:30.736Z,10.69
2023-04-14T07:01:33.845Z,10.68
2023-04-14T07:02:37.069Z,10.67
2023-04-14T07:03:40.456Z,10.69
2023-04-14T07:04:43.435Z,10.72
2023-04-14T07:05:46.724Z,10.76
2023-04-14T07:06:49.600Z,10.81
2023-04-14T07:07:52.715Z,10.85
2023-04-14T07:08:56.591Z,10.87
2023-04-14T07:09:59.674Z,10.87
2023-04-14T07:11:05.259Z,10.89
2023-04-14T07:12:13.834Z,10.87
2023-04-14T07:13:16.758Z,10.88
2023-04-14T07:14:19.775Z,10.91
2023-04-14T07:15:22.690Z,10.95
2023-04-14T07:16:25.563Z,10.92
2023-04-14T07:17:28.518Z,10.89
2023-04-14T07:18:31.937Z,10.89
2023-04-14T07:19:35.091Z,10.90
2023-04-14T07:20:38.160Z,10.90
2023-04-14T07:21:41.047Z,10.87
2023-04-14T07:22:44.040Z,10.83
2023-04-14T07:23:46.882Z,10.82
2023-04-14T07:24:49.930Z,10.84
2023-04-14T07:25:55.260Z,10.86
2023-04-14T07:26:58.101Z,10.86
2023-04-14T07:28:03.741Z,10.83
2023-04-14T07:29:07.402Z,10.76
2023-04-14T07:30:10.957Z,10.73
2023-04-14T07:31:13.886Z,10.73
2023-04-14T07:32:16.817Z,10.68
2023-04-14T07:33:22.305Z,10.64
2023-04-14T07:34:25.536Z,10.62
2023-04-14T07:35:29.245Z,10.62
2023-04-14T07:36:32.888Z,10.63
2023-04-14T07:37:35.736Z,10.64
2023-04-14T07:38:38.648Z,10.67
2023-04-14T07:39:41.694Z,10.74
2023-04-14T07:40:44.730Z,10.80
2023-04-14T07:41:48.050Z,10.85
2023-04-14T07:42:51.152Z,10.90
2023-04-14T07:43:59.387Z,10.89
2023-04-14T07:45:03.960Z,10.82
2023-04-14T07:46:08.756Z,10.78
2023-04-14T07:47:11.912Z,10.75
2023-04-14T07:48:14.893Z,10.74
2023-04-14T07:49:18.317Z,10.71
2023-04-14T07:50:21.252Z,10.69
2023-04-14T07:51:24.168Z,10.67
2023-04-14T07:52:27.147Z,10.65
2023-04-14T07:53:31.478Z,10.62
2023-04-14T07:54:34.815Z,10.60
2023-04-14T07:55:37.739Z,10.61
2023-04-14T07:56:40.681Z,10.64
2023-04-14T07:57:43.708Z,10.64
2023-04-14T07:58:47.224Z,10.62
2023-04-14T07:59:50.017Z,10.59
2023-04-14T08:00:53.093Z,10.53
2023-04-14T08:01:56.415Z,10.47
2023-04-14T08:03:00.830Z,10.47
2023-04-14T08:04:04.148Z,10.49
2023-04-14T08:05:07.978Z,10.51
2023-04-14T08:06:11.868Z,10.50
2023-04-14T08:07:16.181Z,10.49
2023-04-14T08:08:19.737Z,10.50
2023-04-14T08:09:22.608Z,10.47
2023-04-14T08:10:25.881Z,10.45
2023-04-14T08:11:28.730Z,10.42
2023-04-14T08:12:31.792Z,10.41
2023-04-14T08:13:34.979Z,10.37
2023-04-14T08:14:37.967Z,10.34
2023-04-14T08:15:40.829Z,10.30
2023-04-14T08:16:44.061Z,10.24
2023-04-14T08:17:47.102Z,10.17
2023-04-14T08:18:50.048Z,10.10
2023-04-14T08:19:52.931Z,10.05
2023-04-14T08:20:56.463Z,10.04
2023-04-14T08:21:59.581Z,10.02
2023-04-14T08:23:02.614Z,10.00
2023-04-14T08:24:06.615Z,9.96
2023-04-14T08:25:12.866Z,9.89
2023-04-14T08:26:16.214Z,9.83
2023-04-14T08:27:19.475Z,9.80
2023-04-14T08:28:22.811Z,9.79
2023-04-14T08:29:26.416Z,9.83
2023-04-14T08:30:29.780Z,9.89
2023-04-14T08:31:33.565Z,9.93
2023-04-14T08:32:36.860Z,9.93
2023-04-14T08:33:39.969Z,9.91
2023-04-14T08:35:35.317Z,9.89
2023-04-14T08:36:06.888Z,9.84
2023-04-14T08:37:09.924Z,9.89
2023-04-14T08:38:12.818Z,9.92
2023-04-14T08:39:15.731Z,9.90
2023-04-14T08:40:19.449Z,9.89
2023-04-14T08:41:23.031Z,9.90
2023-04-14T08:42:26.339Z,9.92
2023-04-14T08:43:29.628Z,9.91
2023-04-14T08:44:32.697Z,9.92
2023-04-14T08:45:36.832Z,9.92
2023-04-14T08:46:43.006Z,9.95
2023-04-14T08:47:46.799Z,9.99
2023-04-14T08:48:53.874Z,10.00
2023-04-14T08:50:04.888Z,9.99
2023-04-14T08:51:16.674Z,9.95
2023-04-14T08:52:23.501Z,9.90
2023-04-14T08:53:27.776Z,9.82
2023-04-14T08:54:31.367Z,9.79
2023-04-14T08:55:37.355Z,9.77
2023-04-14T08:56:41.970Z,9.75
2023-04-14T08:57:46.639Z,9.77
2023-04-14T08:58:50.940Z,9.80
2023-04-14T08:59:56.961Z,9.82
2023-04-14T09:01:00.524Z,9.87
2023-04-14T09:02:07.901Z,9.91
2023-04-14T09:03:11.625Z,9.90
2023-04-14T09:04:15.408Z,9.90
2023-04-14T09:05:19.223Z,9.89
2023-04-14T09:06:23.457Z,9.89
2023-04-14T09:07:29.530Z,9.88
2023-04-14T09:08:34.659Z,9.89
2023-04-14T09:09:37.507Z,9.90
2023-04-14T09:10:43.232Z,9.90
2023-04-14T09:11:46.860Z,9.93
2023-04-14T09:12:50.487Z,9.96
2023-04-14T09:13:53.639Z,10.00
2023-04-14T09:14:59.984Z,10.01
2023-04-14T09:16:03.592Z,10.02
2023-04-14T09:17:07.414Z,10.06
2023-04-14T09:18:12.092Z,10.14
2023-04-14T09:19:16.660Z,10.21
2023-04-14T09:20:38.605Z,10.26
2023-04-14T09:21:53.886Z,10.30
2023-04-14T09:22:58.220Z,10.30
2023-04-14T09:24:02.078Z,10.30
2023-04-14T09:25:06.131Z,10.28
2023-04-14T09:26:10.494Z,10.27
2023-04-14T09:27:13.737Z,10.26
2023-04-14T09:28:16.979Z,10.26
2023-04-14T09:29:20.133Z,10.23
2023-04-14T09:30:23.184Z,10.23
2023-04-14T09:31:27.249Z,10.24
2023-04-14T09:32:31.155Z,10.28
2023-04-14T09:33:39.554Z,10.35
2023-04-14T09:34:56.630Z,10.46
2023-04-14T09:36:01.384Z,10.56
2023-04-14T09:37:06.539Z,10.58
2023-04-14T09:38:09.505Z,10.60
2023-04-14T09:39:18.495Z,10.61
2023-04-14T09:40:31.589Z,10.64
2023-04-14T09:41:34.440Z,10.62
2023-04-14T09:42:39.744Z,10.58
2023-04-14T09:43:43.189Z,10.55
2023-04-14T09:44:55.756Z,10.53
2023-04-14T09:46:05.724Z,10.56
2023-04-14T09:47:08.753Z,10.59
2023-04-14T09:48:13.181Z,10.59
2023-04-14T09:49:16.229Z,10.55
2023-04-14T09:50:19.284Z,10.48
2023-04-14T09:51:30.105Z,10.43
2023-04-14T09:52:51.522Z,10.41
2023-04-14T09:53:54.984Z,10.39
2023-04-14T09:54:58.989Z,10.34
2023-04-14T09:56:05.113Z,10.27
2023-04-14T09:57:08.566Z,10.24
2023-04-14T09:58:11.588Z,10.25
2023-04-14T09:59:14.466Z,10.29
2023-04-14T10:00:22.307Z,10.39
2023-04-14T10:01:30.599Z,10.46
2023-04-14T10:02:48.541Z,10.45
2023-04-14T10:03:51.500Z,10.40
2023-04-14T10:05:05.582Z,10.31
2023-04-14T10:06:15.851Z,10.24
2023-04-14T10:07:18.945Z,10.20
2023-04-14T10:08:22.353Z,10.19
2023-04-14T10:09:28.007Z,10.22
2023-04-14T10:10:31.840Z,10.28
2023-04-14T10:11:35.585Z,10.29
2023-04-14T10:12:41.941Z,10.21
2023-04-14T10:13:46.564Z,10.15
2023-04-14T10:14:49.534Z,10.12
2023-04-14T10:15:52.697Z,10.09
2023-04-14T10:16:56.673Z,10.06
2023-04-14T10:17:59.897Z,10.07
2023-04-14T10:19:03.595Z,10.07
2023-04-14T10:20:08.221Z,10.07
2023-04-14T10:21:11.666Z,10.09
2023-04-14T10:22:16.869Z,10.13
2023-04-14T10:23:19.853Z,10.16
2023-04-14T10:24:25.018Z,10.23
2023-04-14T10:25:29.478Z,10.31
2023-04-14T10:26:32.350Z,10.39
2023-04-14T10:27:36.115Z,10.49
2023-04-14T10:28:45.644Z,10.61
2023-04-14T10:29:49.037Z,10.72
2023-04-14T10:30:53.928Z,10.81
2023-04-14T10:32:05.550Z,10.91
2023-04-14T10:33:09.760Z,10.97
2023-04-14T10:34:14.712Z,11.01
2023-04-14T10:35:20.726Z,11.06
2023-04-14T10:36:29.253Z,11.18
2023-04-14T10:37:33.163Z,11.35
2023-04-14T10:38:44.072Z,11.48
2023-04-14T10:39:58.600Z,11.58
2023-04-14T10:41:01.548Z,11.61
2023-04-14T10:42:04.432Z,11.65
2023-04-14T10:43:12.560Z,11.69
2023-04-14T10:44:45.076Z,11.71
2023-04-14T10:45:56.153Z,11.76
2023-04-14T10:47:02.486Z,11.90
2023-04-14T10:48:06.074Z,12.06
2023-04-14T10:49:12.344Z,12.27
2023-04-14T10:50:18.215Z,12.53
2023-04-14T10:51:35.831Z,12.74
2023-04-14T10:52:50.070Z,12.90
2023-04-14T10:53:55.830Z,12.98
2023-04-14T10:55:08.167Z,13.11
2023-04-14T10:56:11.377Z,13.21
2023-04-14T10:57:15.604Z,13.30
2023-04-14T10:58:20.627Z,13.37
2023-04-14T10:59:28.991Z,13.45
2023-04-14T11:00:32.565Z,13.48
2023-04-14T11:01:38.089Z,13.49
2023-04-14T11:02:58.446Z,13.53
2023-04-14T11:04:21.694Z,13.68
2023-04-14T11:05:25.205Z,13.84
2023-04-14T11:06:53.546Z,13.92
2023-04-14T11:08:01.572Z,13.97
2023-04-14T11:09:23.231Z,13.98
2023-04-14T11:10:26.949Z,13.96
2023-04-14T11:11:29.880Z,13.87
2023-04-14T11:12:43.399Z,13.83
2023-04-14T11:14:12.273Z,13.83
2023-04-14T11:15:16.559Z,13.80
2023-04-14T11:16:27.103Z,13.77
2023-04-14T11:17:33.218Z,13.75
2023-04-14T11:18:46.333Z,13.78
2023-04-14T11:19:54.437Z,13.81
2023-04-14T11:21:06.242Z,13.86
2023-04-14T11:22:09.021Z,13.90
2023-04-14T11:23:16.641Z,13.93
2023-04-14T11:24:23.430Z,13.95
2023-04-14T11:25:26.405Z,13.96
2023-04-14T11:26:29.557Z,13.98
2023-04-14T11:27:33.538Z,13.98
2023-04-14T11:28:39.510Z,13.97
2023-04-14T11:29:42.637Z,13.99
2023-04-14T11:30:47.167Z,14.02
2023-04-14T11:32:05.793Z,14.04
2023-04-14T11:33:08.960Z,14.05
2023-04-14T11:34:12.253Z,14.08
2023-04-14T11:35:16.100Z,14.13
2023-04-14T11:36:19.265Z,14.09
2023-04-14T11:37:22.809Z,14.03
2023-04-14T11:38:26.075Z,14.03
2023-04-14T11:39:29.936Z,14.02
2023-04-14T11:40:36.684Z,14.02
2023-04-14T11:41:40.004Z,14.00
2023-04-14T11:42:47.471Z,13.95
2023-04-14T11:43:50.708Z,13.90
2023-04-14T11:45:00.099Z,13.84
2023-04-14T11:46:05.613Z,13.77
2023-04-14T11:47:08.723Z,13.73
2023-04-14T11:48:13.321Z,13.74
2023-04-14T11:49:16.134Z,13.73
2023-04-14T11:50:19.246Z,13.73
2023-04-14T11:51:29.813Z,13.73
2023-04-14T11:52:34.794Z,13.66
2023-04-14T11:53:40.662Z,13.61
2023-04-14T11:54:43.638Z,13.61
2023-04-14T11:55:49.735Z,13.61
2023-04-14T11:56:52.627Z,13.62
2023-04-14T11:57:57.057Z,13.61
2023-04-14T11:59:04.884Z,13.64
2023-04-14T12:00:11.885Z,13.68
2023-04-14T12:01:15.021Z,13.75
2023-04-14T12:02:20.454Z,13.78
2023-04-14T12:03:35.714Z,13.83
2023-04-14T12:04:40.286Z,13.89
2023-04-14T12:05:43.838Z,13.93
2023-04-14T12:06:47.173Z,13.95
2023-04-14T12:07:50.397Z,13.98
2023-04-14T12:09:03.701Z,14.01
2023-04-14T12:10:07.819Z,14.05
2023-04-14T12:11:15.260Z,14.10
2023-04-14T12:12:20.228Z,14.12
2023-04-14T12:13:24.118Z,14.16
2023-04-14T12:14:27.090Z,14.19
2023-04-14T12:15:36.086Z,14.19
2023-04-14T12:16:39.499Z,14.18
2023-04-14T12:17:42.838Z,14.17
2023-04-14T12:18:46.240Z,14.17
2023-04-14T12:19:49.185Z,14.16
2023-04-14T12:21:01.345Z,14.12
2023-04-14T12:22:05.566Z,14.09
2023-04-14T12:23:08.916Z,14.06
2023-04-14T12:24:11.751Z,14.05
2023-04-14T12:25:14.707Z,14.03
2023-04-14T12:26:20.188Z,14.01
2023-04-14T12:27:25.171Z,14.00
2023-04-14T12:28:29.722Z,13.99
2023-04-14T12:29:34.825Z,13.97
2023-04-14T12:30:38.088Z,13.94
2023-04-14T12:31:44.582Z,13.91
2023-04-14T12:32:47.769Z,13.88
2023-04-14T12:33:50.659Z,13.85
2023-04-14T12:34:58.587Z,13.84
2023-04-14T12:36:05.158Z,13.87
2023-04-14T12:37:12.315Z,13.88
2023-04-14T12:38:15.218Z,13.89
2023-04-14T12:39:18.877Z,13.86
2023-04-14T12:40:38.203Z,13.84
2023-04-14T12:41:42.061Z,13.82
2023-04-14T12:42:48.157Z,13.79
2023-04-14T12:43:51.252Z,13.78
2023-04-14T12:44:59.194Z,13.77
2023-04-14T12:46:06.282Z,13.76
2023-04-14T12:47:09.512Z,13.75
2023-04-14T12:48:14.379Z,13.71
2023-04-14T12:49:37.720Z,13.68
2023-04-14T12:50:40.686Z,13.66
2023-04-14T12:51:43.609Z,13.65
2023-04-14T12:52:46.918Z,13.62
2023-04-14T12:53:50.497Z,13.58
2023-04-14T12:54:53.547Z,13.56
2023-04-14T12:56:10.878Z,13.53
2023-04-14T12:57:13.875Z,13.52
2023-04-14T12:58:16.834Z,13.54
2023-04-14T12:59:19.858Z,13.52
2023-04-14T13:00:24.060Z,13.50
2023-04-14T13:01:27.149Z,13.49
2023-04-14T13:02:30.914Z,13.47
2023-04-14T13:03:41.852Z,13.46
2023-04-14T13:04:45.315Z,13.49
2023-04-14T13:05:48.204Z,13.51
2023-04-14T13:06:51.274Z,13.51
2023-04-14T13:07:54.851Z,13.50
2023-04-14T13:08:58.324Z,13.49
2023-04-14T13:10:02.824Z,13.51
2023-04-14T13:11:06.267Z,13.53
2023-04-14T13:12:09.743Z,13.53
2023-04-14T13:13:12.892Z,13.52
2023-04-14T13:14:16.643Z,13.48
2023-04-14T13:16:11.920Z,13.43
2023-04-14T13:16:42.682Z,13.37
2023-04-14T13:17:45.700Z,13.35
2023-04-14T13:18:49.289Z,13.31
2023-04-14T13:19:52.225Z,13.29
2023-04-14T13:20:56.181Z,13.29
2023-04-14T13:21:59.073Z,13.27
2023-04-14T13:23:02.246Z,13.26
2023-04-14T13:24:07.022Z,13.26
2023-04-14T13:25:09.965Z,13.27
2023-04-14T13:26:13.401Z,13.29
2023-04-14T13:27:17.240Z,13.31
2023-04-14T13:28:20.622Z,13.36
2023-04-14T13:29:23.506Z,13.50
2023-04-14T13:30:26.539Z,13.81
2023-04-14T13:31:29.772Z,14.10
2023-04-14T13:32:32.891Z,14.38
2023-04-14T13:33:36.005Z,14.67
2023-04-14T13:34:39.819Z,15.10
2023-04-14T13:35:43.683Z,15.48
2023-04-14T13:36:46.897Z,15.77
2023-04-14T13:37:49.993Z,16.02
2023-04-14T13:38:53.067Z,16.25
2023-04-14T13:39:56.409Z,16.49
2023-04-14T13:40:59.479Z,16.80
2023-04-14T13:42:02.500Z,17.06
2023-04-14T13:43:05.569Z,17.33
2023-04-14T13:44:08.471Z,17.64
2023-04-14T13:45:11.815Z,17.95
2023-04-14T13:46:15.148Z,18.35
2023-04-14T13:47:19.141Z,18.69
2023-04-14T13:48:22.316Z,19.05
2023-04-14T13:49:25.074Z,19.46
2023-04-14T13:50:28.213Z,19.85
2023-04-14T13:51:32.946Z,20.24
2023-04-14T13:52:36.474Z,20.54
2023-04-14T13:53:39.300Z,20.78
2023-04-14T13:54:42.485Z,21.00
2023-04-14T13:55:45.916Z,21.14
2023-04-14T13:56:48.915Z,21.27
2023-04-14T13:57:53.590Z,21.53
2023-04-14T13:58:56.702Z,21.75
2023-04-14T13:59:59.770Z,21.90
2023-04-14T14:01:12.330Z,22.02
2023-04-14T14:02:15.560Z,22.19
2023-04-14T14:03:19.053Z,22.38
2023-04-14T14:04:22.471Z,22.48
2023-04-14T14:05:26.451Z,22.43
2023-04-14T14:06:29.490Z,22.30
2023-04-14T14:07:32.413Z,22.08
2023-04-14T14:08:38.610Z,21.90
2023-04-14T14:09:41.729Z,21.72
2023-04-14T14:10:44.987Z,21.55
2023-04-14T14:11:47.859Z,21.33
2023-04-14T14:12:50.759Z,21.09
2023-04-14T14:13:53.621Z,20.86
2023-04-14T14:14:57.064Z,20.55
2023-04-14T14:16:00.511Z,20.28
2023-04-14T14:17:04.526Z,20.09